This is the latest recevied weather packets stored in our database for station/object PY2KO-13. If no packets are shown the sender has not sent any weather packets the latest 10 day(s).
| Time | Temp. | Humidity | Pressure | Rain* | Wind** | Luminosity | Snow |
|---|---|---|---|---|---|---|---|
| 1777727705 | 32.22° C | 39% | 1020.7 hPa | - | - | - | - |
| 1777725905 | 26.67° C | 51% | 1020.9 hPa | - | - | - | - |
| 1777724105 | 26.11° C | 57% | 1020.9 hPa | - | - | - | - |
| 1777722305 | 25.56° C | 65% | 1020.7 hPa | - | - | - | - |
| 1777720506 | 24.44° C | 71% | 1020.9 hPa | - | - | - | - |
| 1777718704 | 23.89° C | 76% | 1020.4 hPa | - | - | - | - |
| 1777716905 | 23.33° C | 79% | 1020.1 hPa | - | - | - | - |
| 1777715105 | 23.33° C | 79% | 1019.4 hPa | - | - | - | - |
| 1777713305 | 23.33° C | 81% | 1019 hPa | - | - | - | - |
| 1777711505 | 23.33° C | 81% | 1018.6 hPa | - | - | - | - |
| 1777709705 | 23.33° C | 81% | 1018 hPa | - | - | - | - |
| 1777707905 | 22.78° C | 86% | 1017.9 hPa | - | - | - | - |
| 1777706105 | 22.78° C | 87% | 1017.9 hPa | - | - | - | - |
| 1777704304 | 22.78° C | 87% | 1017.9 hPa | - | - | - | - |
| 1777702505 | 22.78° C | 88% | 1017.8 hPa | - | - | - | - |
| 1777700705 | 22.78° C | 88% | 1017.9 hPa | - | - | - | - |
| 1777698905 | 23.33° C | 87% | 1018.1 hPa | - | - | - | - |
| 1777697105 | 23.33° C | 87% | 1018.3 hPa | - | - | - | - |
| 1777695305 | 23.33° C | 87% | 1018.5 hPa | - | - | - | - |
| 1777693505 | 23.33° C | 86% | 1018.8 hPa | - | - | - | - |
| 1777691705 | 23.33° C | 84% | 1019.1 hPa | - | - | - | - |
| 1777689905 | 23.89° C | 83% | 1019.4 hPa | - | - | - | - |
| 1777688105 | 23.89° C | 82% | 1019.6 hPa | - | - | - | - |
| 1777686306 | 23.89° C | 82% | 1019.7 hPa | - | - | - | - |
| 1777684505 | 24.44° C | 80% | 1020 hPa | - | - | - | - |
* Rain since midnight (hover to see other rain measurements)
** Current wind speed in m/s (hover to see current wind gust speed)